KTEX

Telluride Regional Airport

Telluride, Colorado, USA
KTEX 241732Z 2418/2518 24007KT P6SM VCSH SCT070 OVC110 FM242100 24012G25KT P6SM FEW040 SCT110 FM250200 21007KT P6SM FEW050 SCT070 FM250400 18005KT P6SM FEW050 SCT090 FM251100 15005KT P6SM FEW250
Issued Valid From Valid To
Sep-24 @ 17:32 UTC
(6 hours ago)
Sep-24 @ 18:00 UTC
(6 hours ago)
Sep-25 @ 18:00 UTC
(in 18 hours)
Expired Click to View Sep-24 @ 18:00 to Sep-24 @ 21:00
KTEX 241732Z 2418/2518 24007KT P6SM VCSH SCT070 OVC110
Wind Visibility Clouds
240° at 7 knots Greater than 6 miles
  • Scattered at 7,000' AGL
  • Overcast at 11,000' AGL
From Sep-24 @ 21:00 to Sep-25 @ 02:00
FM242100 24012G25KT P6SM FEW040 SCT110
Wind Visibility Clouds
240° at 12 knots
 Gusting to 25 knots
Greater than 6 miles
  • Few at 4,000' AGL
  • Scattered at 11,000' AGL
From Sep-25 @ 02:00 to Sep-25 @ 04:00
FM250200 21007KT P6SM FEW050 SCT070
Wind Visibility Clouds
210° at 7 knots Greater than 6 miles
  • Few at 5,000' AGL
  • Scattered at 7,000' AGL
From Sep-25 @ 04:00 to Sep-25 @ 11:00
FM250400 18005KT P6SM FEW050 SCT090
Wind Visibility Clouds
180° at 5 knots Greater than 6 miles
  • Few at 5,000' AGL
  • Scattered at 9,000' AGL
From Sep-25 @ 11:00 to Sep-25 @ 18:00
FM251100 15005KT P6SM FEW250
Wind Visibility Clouds
150° at 5 knots Greater than 6 miles
  • Few at 25,000' AGL
KTEX 241732Z 2418/2518 24007KT P6SM VCSH SCT070 OVC110 FM242100 24012G25KT P6SM FEW040 SCT110 FM250200 21007KT P6SM FEW050 SCT070 FM250400 18005KT P6SM FEW050 SCT090 FM251100 15005KT P6SM FEW250
Issued Sep-24 @ 17:32 UTC
(6 hours ago)
Valid From Sep-24 @ 18:00 UTC
(6 hours ago)
Valid To Sep-25 @ 18:00 UTC
(in 18 hours)
Sep-24 @ 18:00 - Sep-24 @ 21:00
Wind Visibility
240° at 7 knots Greater than 6 miles
Clouds
  • Scattered at 7,000' AGL
  • Overcast at 11,000' AGL
From Sep-24 @ 21:00 - Sep-25 @ 02:00
Wind Visibility
240° at 12 knots
 Gusting to 25 knots
Greater than 6 miles
Clouds
  • Few at 4,000' AGL
  • Scattered at 11,000' AGL
From Sep-25 @ 02:00 - Sep-25 @ 04:00
Wind Visibility
210° at 7 knots Greater than 6 miles
Clouds
  • Few at 5,000' AGL
  • Scattered at 7,000' AGL
From Sep-25 @ 04:00 - Sep-25 @ 11:00
Wind Visibility
180° at 5 knots Greater than 6 miles
Clouds
  • Few at 5,000' AGL
  • Scattered at 9,000' AGL
From Sep-25 @ 11:00 - Sep-25 @ 18:00
Wind Visibility
150° at 5 knots Greater than 6 miles
Clouds
  • Few at 25,000' AGL